UAL136 RJGG-PGUM
Flight info
| Callsign | UAL136 |
|---|---|
| Flight time | 3h 15m |
| Altitude | 37000 |
| Route | BOGON Y79 LELIN Y55 SABRI/N0464F360 B586 CADDY/N0461F370 B586 UKATA VASKO B586 WINZR |
| Aircraft | B38M/M-SDE1FGHILORVWXY/HB1 |
Departure
| Time | 2026-05-04 18:45 |
|---|---|
| Airport | Chubu Centrair International Airport (RJGG) |
Arrival
| Time | 2026-05-04 22:00 |
|---|---|
| Airport | Antonio B. Won Pat International Airport (PGUM) |
| Time | Latitude | Longitude | Altitude | Speed | Heading |
|---|---|---|---|---|---|
| 2026-05-04 18:11 | 34.85684 | 136.81371 | 30 ft | 0 kts | 78° |
| 2026-05-04 18:33 | 34.85680 | 136.81343 | 30 ft | 4 kts | 83° |
| 2026-05-04 18:33 | 34.85678 | 136.81311 | 30 ft | 4 kts | 93° |
| 2026-05-04 18:34 | 34.85683 | 136.81279 | 30 ft | 4 kts | 115° |
| 2026-05-04 18:34 | 34.85698 | 136.81260 | 30 ft | 2 kts | 167° |
| 2026-05-04 18:34 | 34.85704 | 136.81258 | 30 ft | 0 kts | 169° |
| 2026-05-04 18:38 | 34.85696 | 136.81260 | 30 ft | 2 kts | 169° |
| 2026-05-04 18:38 | 34.85672 | 136.81266 | 30 ft | 5 kts | 168° |
| 2026-05-04 18:39 | 34.85633 | 136.81276 | 30 ft | 7 kts | 169° |
| 2026-05-04 18:39 | 34.85581 | 136.81288 | 30 ft | 9 kts | 169° |
| 2026-05-04 18:39 | 34.85516 | 136.81303 | 30 ft | 11 kts | 169° |
| 2026-05-04 18:39 | 34.85437 | 136.81321 | 30 ft | 12 kts | 169° |
| 2026-05-04 18:40 | 34.85347 | 136.81342 | 30 ft | 14 kts | 169° |
| 2026-05-04 18:40 | 34.85245 | 136.81367 | 30 ft | 16 kts | 168° |
| 2026-05-04 18:40 | 34.85141 | 136.81392 | 30 ft | 12 kts | 177° |
| 2026-05-04 18:40 | 34.85085 | 136.81348 | 30 ft | 9 kts | 257° |
| 2026-05-04 18:41 | 34.85074 | 136.81265 | 30 ft | 11 kts | 260° |
| 2026-05-04 18:41 | 34.85058 | 136.81169 | 30 ft | 12 kts | 257° |
| 2026-05-04 18:41 | 34.85005 | 136.81096 | 30 ft | 13 kts | 185° |
| 2026-05-04 18:41 | 34.84910 | 136.81117 | 30 ft | 15 kts | 168° |
| 2026-05-04 18:42 | 34.84806 | 136.81142 | 30 ft | 16 kts | 169° |
| 2026-05-04 18:42 | 34.84689 | 136.81170 | 30 ft | 18 kts | 168° |
| 2026-05-04 18:42 | 34.84561 | 136.81201 | 30 ft | 19 kts | 170° |
| 2026-05-04 18:42 | 34.84428 | 136.81239 | 30 ft | 14 kts | 172° |
| 2026-05-04 18:43 | 34.84424 | 136.81239 | 30 ft | 0 kts | 174° |
| 2026-05-04 18:43 | 34.84417 | 136.81240 | 30 ft | 3 kts | 178° |
| 2026-05-04 18:43 | 34.84368 | 136.81223 | 30 ft | 12 kts | 218° |
| 2026-05-04 18:43 | 34.84340 | 136.81099 | 29 ft | 18 kts | 258° |
| 2026-05-04 18:44 | 34.84316 | 136.80944 | 26 ft | 14 kts | 263° |
| 2026-05-04 18:44 | 34.84327 | 136.80902 | 27 ft | 7 kts | 320° |
| 2026-05-04 18:44 | 34.84389 | 136.80883 | 27 ft | 8 kts | 349° |
| 2026-05-04 18:44 | 34.84571 | 136.80838 | 28 ft | 60 kts | 347° |
| 2026-05-04 18:45 | 34.85212 | 136.80684 | 29 ft | 126 kts | 348° |
| 2026-05-04 18:45 | 34.86218 | 136.80437 | 213 ft | 162 kts | 344° |
| 2026-05-04 18:45 | 34.87372 | 136.80171 | 859 ft | 169 kts | 342° |
| 2026-05-04 18:45 | 34.88334 | 136.79427 | 1761 ft | 170 kts | 311° |
| 2026-05-04 18:46 | 34.88760 | 136.77992 | 2227 ft | 198 kts | 280° |
| 2026-05-04 18:46 | 34.88608 | 136.76195 | 2543 ft | 236 kts | 254° |
| 2026-05-04 18:46 | 34.87508 | 136.74636 | 3369 ft | 250 kts | 219° |
| 2026-05-04 18:46 | 34.86024 | 136.73437 | 4116 ft | 261 kts | 220° |
| 2026-05-04 18:47 | 34.84490 | 136.72159 | 4661 ft | 280 kts | 214° |
| 2026-05-04 18:47 | 34.82571 | 136.71470 | 5374 ft | 293 kts | 183° |
| 2026-05-04 18:47 | 34.80528 | 136.71768 | 6274 ft | 298 kts | 169° |
| 2026-05-04 18:47 | 34.78474 | 136.72267 | 7039 ft | 303 kts | 167° |
| 2026-05-04 18:48 | 34.76567 | 136.73376 | 7765 ft | 309 kts | 140° |
| 2026-05-04 18:48 | 34.75184 | 136.75380 | 8460 ft | 312 kts | 116° |
| 2026-05-04 18:48 | 34.74123 | 136.77706 | 9192 ft | 319 kts | 117° |
| 2026-05-04 18:48 | 34.73035 | 136.80050 | 9895 ft | 325 kts | 117° |
| 2026-05-04 18:49 | 34.71914 | 136.82481 | 10466 ft | 336 kts | 117° |
| 2026-05-04 18:49 | 34.70744 | 136.85028 | 10761 ft | 355 kts | 117° |
| 2026-05-04 18:49 | 34.69506 | 136.87725 | 11057 ft | 374 kts | 118° |
| 2026-05-04 18:49 | 34.68245 | 136.90552 | 11453 ft | 386 kts | 112° |
| 2026-05-04 18:50 | 34.67569 | 136.93643 | 12138 ft | 384 kts | 96° |
| 2026-05-04 18:50 | 34.67152 | 136.96883 | 12704 ft | 391 kts | 97° |
| 2026-05-04 18:50 | 34.66744 | 137.00171 | 13388 ft | 395 kts | 97° |
| 2026-05-04 18:50 | 34.66344 | 137.03502 | 13998 ft | 401 kts | 97° |
| 2026-05-04 18:51 | 34.65948 | 137.06864 | 14602 ft | 404 kts | 97° |
| 2026-05-04 18:51 | 34.65550 | 137.10265 | 15210 ft | 408 kts | 98° |
| 2026-05-04 18:51 | 34.65149 | 137.13700 | 15809 ft | 412 kts | 98° |
| 2026-05-04 18:51 | 34.64749 | 137.17116 | 16370 ft | 416 kts | 98° |
| 2026-05-04 18:52 | 34.64339 | 137.20614 | 16945 ft | 420 kts | 99° |
| 2026-05-04 18:52 | 34.63923 | 137.24150 | 17519 ft | 424 kts | 99° |
| 2026-05-04 18:52 | 34.63503 | 137.27712 | 18077 ft | 428 kts | 100° |
| 2026-05-04 18:52 | 34.63078 | 137.31314 | 18583 ft | 432 kts | 100° |
| 2026-05-04 18:53 | 34.62646 | 137.34947 | 19008 ft | 437 kts | 101° |
| 2026-05-04 18:53 | 34.61818 | 137.38486 | 19416 ft | 435 kts | 117° |
| 2026-05-04 18:53 | 34.60641 | 137.41829 | 19816 ft | 440 kts | 118° |
| 2026-05-04 18:53 | 34.59426 | 137.45252 | 20224 ft | 444 kts | 118° |
| 2026-05-04 18:54 | 34.58185 | 137.48704 | 20664 ft | 448 kts | 119° |
| 2026-05-04 18:54 | 34.56925 | 137.52183 | 21080 ft | 452 kts | 120° |
| 2026-05-04 18:54 | 34.55652 | 137.55690 | 21465 ft | 456 kts | 120° |
| 2026-05-04 18:54 | 34.54336 | 137.59218 | 21803 ft | 459 kts | 125° |
| 2026-05-04 18:55 | 34.52757 | 137.62588 | 22259 ft | 459 kts | 128° |
| 2026-05-04 18:55 | 34.49520 | 137.69302 | 23087 ft | 467 kts | 129° |
| 2026-05-04 18:55 | 34.47865 | 137.72710 | 23515 ft | 471 kts | 130° |
| 2026-05-04 18:56 | 34.46197 | 137.76141 | 23874 ft | 474 kts | 130° |
| 2026-05-04 18:56 | 34.44518 | 137.79594 | 24246 ft | 475 kts | 130° |
| 2026-05-04 18:56 | 34.42830 | 137.83059 | 24705 ft | 476 kts | 130° |
| 2026-05-04 18:56 | 34.41165 | 137.86473 | 25104 ft | 478 kts | 131° |
| 2026-05-04 18:57 | 34.39467 | 137.89951 | 25496 ft | 480 kts | 131° |
| 2026-05-04 18:57 | 34.37759 | 137.93448 | 25889 ft | 482 kts | 131° |
| 2026-05-04 18:57 | 34.36047 | 137.96949 | 26281 ft | 483 kts | 131° |
| 2026-05-04 18:57 | 34.34321 | 138.00424 | 26636 ft | 481 kts | 135° |
| 2026-05-04 18:58 | 34.32230 | 138.03380 | 26977 ft | 459 kts | 149° |
| 2026-05-04 18:58 | 34.29898 | 138.06059 | 27247 ft | 463 kts | 149° |
| 2026-05-04 18:58 | 34.27548 | 138.08734 | 27626 ft | 464 kts | 150° |
| 2026-05-04 18:58 | 34.25179 | 138.11395 | 28001 ft | 465 kts | 150° |
| 2026-05-04 18:59 | 34.22799 | 138.14047 | 28350 ft | 466 kts | 150° |
| 2026-05-04 18:59 | 34.20405 | 138.16706 | 28657 ft | 468 kts | 150° |
| 2026-05-04 18:59 | 34.18010 | 138.19362 | 29008 ft | 470 kts | 150° |
| 2026-05-04 18:59 | 34.15603 | 138.22029 | 29357 ft | 471 kts | 150° |
| 2026-05-04 19:00 | 34.13209 | 138.24678 | 29708 ft | 473 kts | 151° |
| 2026-05-04 19:00 | 34.10777 | 138.27368 | 30044 ft | 474 kts | 151° |
| 2026-05-04 19:00 | 34.08339 | 138.30063 | 30305 ft | 476 kts | 150° |
| 2026-05-04 19:00 | 34.05886 | 138.32771 | 30546 ft | 478 kts | 151° |
| 2026-05-04 19:01 | 34.03420 | 138.35492 | 30792 ft | 481 kts | 151° |
| 2026-05-04 19:01 | 34.00940 | 138.38226 | 31033 ft | 483 kts | 151° |
| 2026-05-04 19:01 | 33.98496 | 138.40918 | 31310 ft | 484 kts | 151° |
| 2026-05-04 19:01 | 33.96012 | 138.43652 | 31643 ft | 484 kts | 151° |
| 2026-05-04 19:02 | 33.93522 | 138.46391 | 31928 ft | 484 kts | 152° |
| 2026-05-04 19:02 | 33.91030 | 138.49129 | 32249 ft | 484 kts | 152° |
| 2026-05-04 19:02 | 33.88537 | 138.51865 | 32566 ft | 484 kts | 152° |
| 2026-05-04 19:02 | 33.86041 | 138.54605 | 32888 ft | 485 kts | 152° |
| 2026-05-04 19:03 | 33.83581 | 138.57300 | 33179 ft | 485 kts | 152° |
| 2026-05-04 19:03 | 33.81099 | 138.60020 | 33430 ft | 485 kts | 152° |
| 2026-05-04 19:03 | 33.78599 | 138.62755 | 33720 ft | 486 kts | 153° |
| 2026-05-04 19:03 | 33.76091 | 138.65497 | 34019 ft | 486 kts | 153° |
| 2026-05-04 19:04 | 33.73587 | 138.68234 | 34334 ft | 485 kts | 153° |
| 2026-05-04 19:04 | 33.71092 | 138.70958 | 34650 ft | 484 kts | 153° |
| 2026-05-04 19:04 | 33.68598 | 138.73678 | 34942 ft | 483 kts | 153° |
| 2026-05-04 19:04 | 33.66146 | 138.76351 | 35150 ft | 482 kts | 152° |
| 2026-05-04 19:05 | 33.63662 | 138.79055 | 35410 ft | 482 kts | 152° |
| 2026-05-04 19:05 | 33.61186 | 138.81748 | 35673 ft | 481 kts | 152° |
| 2026-05-04 19:05 | 33.58703 | 138.84448 | 35929 ft | 480 kts | 152° |
| 2026-05-04 19:05 | 33.56224 | 138.87141 | 36167 ft | 479 kts | 152° |
| 2026-05-04 19:06 | 33.53753 | 138.89824 | 36403 ft | 478 kts | 152° |
| 2026-05-04 19:06 | 33.51316 | 138.92467 | 36621 ft | 478 kts | 152° |
| 2026-05-04 19:06 | 33.48850 | 138.95138 | 36844 ft | 477 kts | 152° |
| 2026-05-04 19:06 | 33.46392 | 138.97799 | 37037 ft | 477 kts | 152° |
| 2026-05-04 19:07 | 33.41473 | 139.03120 | 37045 ft | 475 kts | 152° |
| 2026-05-04 19:07 | 33.36562 | 139.08422 | 37058 ft | 475 kts | 152° |
| 2026-05-04 19:08 | 33.31689 | 139.13676 | 37050 ft | 474 kts | 153° |
| 2026-05-04 19:08 | 33.26778 | 139.18962 | 37036 ft | 474 kts | 152° |
| 2026-05-04 19:09 | 33.21897 | 139.24208 | 37066 ft | 476 kts | 152° |
| 2026-05-04 19:09 | 33.16962 | 139.29503 | 37056 ft | 476 kts | 152° |
| 2026-05-04 19:10 | 33.12866 | 139.33891 | 37060 ft | 476 kts | 152° |
| 2026-05-04 19:10 | 33.07929 | 139.39174 | 37061 ft | 477 kts | 152° |
| 2026-05-04 19:11 | 33.03016 | 139.44422 | 37043 ft | 477 kts | 152° |
| 2026-05-04 19:11 | 32.98071 | 139.49696 | 37059 ft | 477 kts | 152° |
| 2026-05-04 19:12 | 32.90622 | 139.57627 | 37057 ft | 478 kts | 152° |
| 2026-05-04 19:13 | 32.85700 | 139.62857 | 37063 ft | 478 kts | 152° |
| 2026-05-04 19:13 | 32.80730 | 139.68130 | 37038 ft | 478 kts | 152° |
| 2026-05-04 19:13 | 32.78103 | 139.70429 | 37044 ft | 457 kts | 165° |
| 2026-05-04 19:14 | 32.75267 | 139.71786 | 37053 ft | 425 kts | 181° |
| 2026-05-04 19:14 | 32.69546 | 139.73057 | 37051 ft | 419 kts | 184° |
| 2026-05-04 19:15 | 32.63792 | 139.74055 | 37043 ft | 418 kts | 185° |
| 2026-05-04 19:15 | 32.58012 | 139.74968 | 37064 ft | 418 kts | 185° |
| 2026-05-04 19:16 | 32.52278 | 139.75848 | 37069 ft | 417 kts | 185° |
| 2026-05-04 19:16 | 32.46510 | 139.76730 | 37077 ft | 418 kts | 186° |
| 2026-05-04 19:17 | 32.40710 | 139.77615 | 37057 ft | 420 kts | 185° |
| 2026-05-04 19:17 | 32.34915 | 139.78496 | 37081 ft | 419 kts | 185° |
| 2026-05-04 19:18 | 32.29158 | 139.79370 | 37077 ft | 419 kts | 185° |
| 2026-05-04 19:18 | 32.23364 | 139.80250 | 37055 ft | 420 kts | 185° |
| 2026-05-04 19:19 | 32.17530 | 139.81134 | 37082 ft | 423 kts | 185° |
| 2026-05-04 19:19 | 32.11743 | 139.82010 | 37082 ft | 422 kts | 185° |
| 2026-05-04 19:20 | 32.05901 | 139.82893 | 37058 ft | 422 kts | 184° |
| 2026-05-04 19:20 | 32.00050 | 139.83776 | 37087 ft | 424 kts | 184° |
| 2026-05-04 19:21 | 31.94229 | 139.84653 | 37082 ft | 423 kts | 184° |
| 2026-05-04 19:21 | 31.88387 | 139.85533 | 37083 ft | 423 kts | 184° |
| 2026-05-04 19:22 | 31.82526 | 139.86415 | 37089 ft | 426 kts | 184° |
| 2026-05-04 19:22 | 31.76643 | 139.87298 | 37078 ft | 426 kts | 184° |
| 2026-05-04 19:23 | 31.70794 | 139.88176 | 37087 ft | 426 kts | 184° |
| 2026-05-04 19:23 | 31.64916 | 139.89056 | 37081 ft | 426 kts | 184° |
| 2026-05-04 19:24 | 31.59025 | 139.89937 | 37085 ft | 426 kts | 184° |
| 2026-05-04 19:24 | 31.53182 | 139.90811 | 37085 ft | 426 kts | 184° |
| 2026-05-04 19:25 | 31.47299 | 139.91689 | 37060 ft | 426 kts | 184° |
| 2026-05-04 19:25 | 31.41412 | 139.92566 | 37091 ft | 428 kts | 184° |
| 2026-05-04 19:26 | 31.35505 | 139.93446 | 37092 ft | 427 kts | 184° |
| 2026-05-04 19:26 | 31.29596 | 139.94324 | 37092 ft | 427 kts | 184° |
| 2026-05-04 19:27 | 31.23719 | 139.95197 | 37066 ft | 428 kts | 183° |
| 2026-05-04 19:27 | 31.17774 | 139.96078 | 37094 ft | 430 kts | 183° |
| 2026-05-04 19:28 | 31.11845 | 139.96957 | 37096 ft | 429 kts | 183° |
| 2026-05-04 19:28 | 31.05953 | 139.97829 | 37057 ft | 429 kts | 183° |
| 2026-05-04 19:29 | 31.00004 | 139.98768 | 37074 ft | 438 kts | 176° |
| 2026-05-04 19:29 | 30.94090 | 140.00867 | 37084 ft | 445 kts | 173° |
| 2026-05-04 19:30 | 30.88209 | 140.02988 | 37107 ft | 445 kts | 173° |
| 2026-05-04 19:30 | 30.82274 | 140.05136 | 37105 ft | 447 kts | 173° |
| 2026-05-04 19:31 | 30.76366 | 140.07273 | 37098 ft | 447 kts | 173° |
| 2026-05-04 19:31 | 30.70411 | 140.09424 | 37100 ft | 447 kts | 173° |
| 2026-05-04 19:32 | 30.64467 | 140.11568 | 37091 ft | 448 kts | 173° |
| 2026-05-04 19:32 | 30.58496 | 140.13719 | 37102 ft | 449 kts | 173° |
| 2026-05-04 19:33 | 30.52554 | 140.15857 | 37101 ft | 449 kts | 173° |
| 2026-05-04 19:33 | 30.46573 | 140.18007 | 37079 ft | 450 kts | 172° |
| 2026-05-04 19:34 | 30.40593 | 140.20153 | 37097 ft | 451 kts | 172° |
| 2026-05-04 19:34 | 30.34581 | 140.22307 | 37100 ft | 451 kts | 172° |
| 2026-05-04 19:35 | 30.28605 | 140.24447 | 37071 ft | 451 kts | 172° |
| 2026-05-04 19:35 | 30.22573 | 140.26603 | 37105 ft | 453 kts | 172° |
| 2026-05-04 19:36 | 30.16550 | 140.28753 | 37098 ft | 453 kts | 172° |
| 2026-05-04 19:36 | 30.10525 | 140.30902 | 37102 ft | 453 kts | 172° |
| 2026-05-04 19:37 | 30.04529 | 140.33038 | 37101 ft | 454 kts | 172° |
| 2026-05-04 19:37 | 29.98477 | 140.35189 | 37102 ft | 454 kts | 172° |
| 2026-05-04 19:38 | 29.92479 | 140.37318 | 37100 ft | 454 kts | 172° |
| 2026-05-04 19:38 | 29.86432 | 140.39462 | 37093 ft | 454 kts | 171° |
| 2026-05-04 19:39 | 29.80373 | 140.41608 | 37101 ft | 454 kts | 171° |
| 2026-05-04 19:39 | 29.74322 | 140.43747 | 37103 ft | 454 kts | 171° |
| 2026-05-04 19:40 | 29.68330 | 140.45864 | 37100 ft | 454 kts | 171° |
| 2026-05-04 19:40 | 29.62286 | 140.47995 | 37100 ft | 454 kts | 171° |
| 2026-05-04 19:41 | 29.56245 | 140.50124 | 37099 ft | 454 kts | 171° |
| 2026-05-04 19:41 | 29.50237 | 140.52238 | 37072 ft | 454 kts | 171° |
| 2026-05-04 19:42 | 29.44189 | 140.54363 | 37098 ft | 455 kts | 171° |
| 2026-05-04 19:42 | 29.38125 | 140.56491 | 37098 ft | 455 kts | 171° |
| 2026-05-04 19:43 | 29.32067 | 140.58615 | 37107 ft | 455 kts | 171° |
| 2026-05-04 19:43 | 29.26043 | 140.60724 | 37101 ft | 456 kts | 171° |
| 2026-05-04 19:44 | 29.19970 | 140.62848 | 37098 ft | 456 kts | 171° |
| 2026-05-04 19:44 | 29.13921 | 140.64960 | 37103 ft | 456 kts | 171° |
| 2026-05-04 19:45 | 29.07839 | 140.67082 | 37092 ft | 457 kts | 171° |
| 2026-05-04 19:45 | 29.01749 | 140.69204 | 37103 ft | 458 kts | 171° |
| 2026-05-04 19:46 | 28.95647 | 140.71327 | 37100 ft | 458 kts | 170° |
| 2026-05-04 19:46 | 28.89539 | 140.73450 | 37089 ft | 458 kts | 170° |
| 2026-05-04 19:47 | 28.83457 | 140.75561 | 37107 ft | 460 kts | 170° |
| 2026-05-04 19:47 | 28.77345 | 140.77679 | 37101 ft | 459 kts | 170° |
| 2026-05-04 19:48 | 28.71213 | 140.79803 | 37103 ft | 459 kts | 170° |
| 2026-05-04 19:48 | 28.65110 | 140.81913 | 37105 ft | 462 kts | 170° |
| 2026-05-04 19:49 | 28.58951 | 140.84040 | 37102 ft | 462 kts | 170° |
| 2026-05-04 19:49 | 28.52793 | 140.86165 | 37102 ft | 462 kts | 170° |
| 2026-05-04 19:50 | 28.46671 | 140.88275 | 37102 ft | 463 kts | 169° |
| 2026-05-04 19:50 | 28.40489 | 140.90402 | 37100 ft | 465 kts | 169° |
| 2026-05-04 19:51 | 28.34282 | 140.92535 | 37100 ft | 465 kts | 169° |
| 2026-05-04 19:51 | 28.28085 | 140.94663 | 37079 ft | 465 kts | 169° |
| 2026-05-04 19:52 | 28.21906 | 140.96781 | 37100 ft | 467 kts | 169° |
| 2026-05-04 19:52 | 28.15674 | 140.98916 | 37097 ft | 467 kts | 169° |
| 2026-05-04 19:53 | 28.09484 | 141.01032 | 37094 ft | 467 kts | 169° |
| 2026-05-04 19:53 | 28.03257 | 141.03160 | 37092 ft | 468 kts | 169° |
| 2026-05-04 19:54 | 27.97014 | 141.05290 | 37094 ft | 468 kts | 169° |
| 2026-05-04 19:54 | 27.90767 | 141.07419 | 37090 ft | 468 kts | 169° |
| 2026-05-04 19:55 | 27.84565 | 141.09531 | 37084 ft | 468 kts | 169° |
| 2026-05-04 19:55 | 27.78322 | 141.11653 | 37081 ft | 469 kts | 169° |
| 2026-05-04 19:56 | 27.72067 | 141.13777 | 37086 ft | 468 kts | 168° |
| 2026-05-04 19:56 | 27.65817 | 141.15897 | 37086 ft | 468 kts | 169° |
| 2026-05-04 19:57 | 27.59605 | 141.18002 | 37087 ft | 468 kts | 169° |
| 2026-05-04 19:57 | 27.53359 | 141.20115 | 37088 ft | 468 kts | 169° |
| 2026-05-04 19:58 | 27.47115 | 141.22225 | 37087 ft | 468 kts | 169° |
| 2026-05-04 19:58 | 27.41917 | 141.23981 | 37087 ft | 469 kts | 168° |
| 2026-05-04 19:59 | 27.34642 | 141.26434 | 37088 ft | 469 kts | 168° |
| 2026-05-04 19:59 | 27.29451 | 141.28182 | 37089 ft | 469 kts | 168° |
| 2026-05-04 20:00 | 27.23190 | 141.30289 | 37079 ft | 469 kts | 168° |
| 2026-05-04 20:00 | 27.16922 | 141.32395 | 37092 ft | 470 kts | 168° |
| 2026-05-04 20:01 | 27.10652 | 141.34500 | 37095 ft | 470 kts | 168° |
| 2026-05-04 20:01 | 27.04421 | 141.36588 | 37090 ft | 471 kts | 168° |
| 2026-05-04 20:02 | 26.98131 | 141.38695 | 37091 ft | 471 kts | 168° |
| 2026-05-04 20:02 | 26.91835 | 141.40801 | 37091 ft | 471 kts | 168° |
| 2026-05-04 20:03 | 26.85602 | 141.42883 | 37091 ft | 471 kts | 168° |
| 2026-05-04 20:03 | 26.79299 | 141.44986 | 37086 ft | 472 kts | 167° |
| 2026-05-04 20:04 | 26.72990 | 141.47089 | 37093 ft | 472 kts | 167° |
| 2026-05-04 20:04 | 26.66728 | 141.49174 | 37097 ft | 472 kts | 167° |
| 2026-05-04 20:05 | 26.60440 | 141.51266 | 37085 ft | 472 kts | 167° |
| 2026-05-04 20:05 | 26.54125 | 141.53363 | 37095 ft | 473 kts | 167° |
| 2026-05-04 20:06 | 26.47813 | 141.55457 | 37095 ft | 472 kts | 167° |
| 2026-05-04 20:06 | 26.41542 | 141.57536 | 37097 ft | 473 kts | 167° |
| 2026-05-04 20:07 | 26.35237 | 141.59623 | 37093 ft | 473 kts | 167° |
| 2026-05-04 20:07 | 26.28916 | 141.61713 | 37097 ft | 473 kts | 167° |
| 2026-05-04 20:08 | 26.22642 | 141.63785 | 37097 ft | 473 kts | 167° |
| 2026-05-04 20:08 | 26.16319 | 141.65871 | 37080 ft | 473 kts | 166° |
| 2026-05-04 20:09 | 26.10005 | 141.67952 | 37098 ft | 474 kts | 166° |
| 2026-05-04 20:09 | 26.03671 | 141.70037 | 37097 ft | 474 kts | 166° |
| 2026-05-04 20:10 | 25.97374 | 141.72108 | 37097 ft | 474 kts | 166° |
| 2026-05-04 20:10 | 25.91038 | 141.74188 | 37095 ft | 474 kts | 166° |
| 2026-05-04 20:11 | 25.84714 | 141.76263 | 37097 ft | 475 kts | 166° |
| 2026-05-04 20:11 | 25.78366 | 141.78343 | 37097 ft | 475 kts | 166° |
| 2026-05-04 20:12 | 25.72062 | 141.80407 | 37088 ft | 475 kts | 166° |
| 2026-05-04 20:12 | 25.65725 | 141.82479 | 37101 ft | 474 kts | 166° |
| 2026-05-04 20:13 | 25.59404 | 141.84544 | 37096 ft | 473 kts | 166° |
| 2026-05-04 20:13 | 25.53123 | 141.86592 | 37096 ft | 473 kts | 166° |
| 2026-05-04 20:14 | 25.46795 | 141.88655 | 37097 ft | 473 kts | 166° |
| 2026-05-04 20:14 | 25.40516 | 141.90699 | 37100 ft | 473 kts | 166° |
| 2026-05-04 20:15 | 25.34193 | 141.92756 | 37099 ft | 473 kts | 166° |
| 2026-05-04 20:15 | 25.27865 | 141.94812 | 37092 ft | 473 kts | 166° |
| 2026-05-04 20:16 | 25.21543 | 141.96864 | 37100 ft | 473 kts | 166° |
| 2026-05-04 20:16 | 25.15231 | 141.98910 | 37098 ft | 473 kts | 166° |
| 2026-05-04 20:17 | 25.08949 | 142.00944 | 37099 ft | 473 kts | 166° |
| 2026-05-04 20:17 | 25.02616 | 142.02993 | 37096 ft | 474 kts | 166° |
| 2026-05-04 20:18 | 24.96201 | 142.04654 | 37107 ft | 473 kts | 170° |
| 2026-05-04 20:18 | 24.89839 | 142.06226 | 37099 ft | 472 kts | 169° |
| 2026-05-04 20:19 | 24.83435 | 142.07828 | 37098 ft | 472 kts | 169° |
| 2026-05-04 20:19 | 24.77013 | 142.09420 | 37101 ft | 473 kts | 170° |
| 2026-05-04 20:20 | 24.70581 | 142.10991 | 37094 ft | 473 kts | 170° |
| 2026-05-04 20:20 | 24.64205 | 142.12548 | 37092 ft | 473 kts | 170° |
| 2026-05-04 20:21 | 24.57777 | 142.14117 | 37091 ft | 473 kts | 169° |
| 2026-05-04 20:21 | 24.48114 | 142.16472 | 37088 ft | 473 kts | 169° |
| 2026-05-04 20:22 | 24.41738 | 142.18023 | 37091 ft | 473 kts | 169° |
| 2026-05-04 20:22 | 24.35313 | 142.19585 | 37094 ft | 473 kts | 169° |
| 2026-05-04 20:23 | 24.28878 | 142.21148 | 37100 ft | 473 kts | 169° |
| 2026-05-04 20:23 | 24.22437 | 142.22710 | 37090 ft | 473 kts | 169° |
| 2026-05-04 20:24 | 24.16005 | 142.24269 | 37093 ft | 473 kts | 169° |
| 2026-05-04 20:24 | 24.09598 | 142.25821 | 37094 ft | 473 kts | 169° |
| 2026-05-04 20:25 | 24.03158 | 142.27378 | 37093 ft | 473 kts | 169° |
| 2026-05-04 20:25 | 23.96737 | 142.28929 | 37095 ft | 473 kts | 169° |
| 2026-05-04 20:26 | 23.90357 | 142.30470 | 37096 ft | 472 kts | 169° |
| 2026-05-04 20:26 | 23.83936 | 142.32018 | 37084 ft | 472 kts | 169° |
| 2026-05-04 20:27 | 23.77514 | 142.33564 | 37094 ft | 472 kts | 169° |
| 2026-05-04 20:27 | 23.71112 | 142.35105 | 37090 ft | 472 kts | 169° |
| 2026-05-04 20:28 | 23.64731 | 142.36640 | 37084 ft | 472 kts | 169° |
| 2026-05-04 20:28 | 23.58302 | 142.38183 | 37094 ft | 472 kts | 169° |
| 2026-05-04 20:29 | 23.51887 | 142.39722 | 37086 ft | 472 kts | 169° |
| 2026-05-04 20:29 | 23.45474 | 142.41259 | 37090 ft | 472 kts | 169° |
| 2026-05-04 20:30 | 23.39095 | 142.42786 | 37084 ft | 472 kts | 169° |
| 2026-05-04 20:30 | 23.32658 | 142.44326 | 37086 ft | 473 kts | 169° |
| 2026-05-04 20:31 | 23.26227 | 142.45863 | 37083 ft | 472 kts | 169° |
| 2026-05-04 20:31 | 23.19808 | 142.47395 | 37083 ft | 472 kts | 169° |
| 2026-05-04 20:32 | 23.13419 | 142.48919 | 37082 ft | 472 kts | 169° |
| 2026-05-04 20:32 | 23.06986 | 142.50452 | 37082 ft | 472 kts | 169° |
| 2026-05-04 20:33 | 23.00596 | 142.51973 | 37082 ft | 472 kts | 169° |
| 2026-05-04 20:33 | 22.94178 | 142.53499 | 37080 ft | 472 kts | 169° |
| 2026-05-04 20:34 | 22.87747 | 142.55026 | 37083 ft | 473 kts | 169° |
| 2026-05-04 20:34 | 22.81301 | 142.56556 | 37083 ft | 473 kts | 169° |
| 2026-05-04 20:35 | 22.74910 | 142.58071 | 37084 ft | 473 kts | 169° |
| 2026-05-04 20:35 | 22.68487 | 142.59594 | 37077 ft | 473 kts | 169° |
| 2026-05-04 20:36 | 22.62045 | 142.61118 | 37083 ft | 473 kts | 169° |
| 2026-05-04 20:36 | 22.55647 | 142.62631 | 37083 ft | 473 kts | 169° |
| 2026-05-04 20:37 | 22.49222 | 142.64148 | 37083 ft | 473 kts | 169° |
| 2026-05-04 20:37 | 22.42773 | 142.65670 | 37074 ft | 473 kts | 169° |
| 2026-05-04 20:38 | 22.36360 | 142.67181 | 37079 ft | 474 kts | 169° |
| 2026-05-04 20:38 | 22.29909 | 142.68701 | 37082 ft | 473 kts | 169° |
| 2026-05-04 20:39 | 22.23475 | 142.70215 | 37075 ft | 473 kts | 169° |
| 2026-05-04 20:39 | 22.17068 | 142.71721 | 37074 ft | 473 kts | 169° |
| 2026-05-04 20:40 | 22.10616 | 142.73236 | 37077 ft | 473 kts | 169° |
| 2026-05-04 20:40 | 22.04167 | 142.74750 | 37078 ft | 473 kts | 169° |
| 2026-05-04 20:41 | 21.97772 | 142.76249 | 37079 ft | 473 kts | 169° |
| 2026-05-04 20:41 | 21.91319 | 142.77760 | 37079 ft | 474 kts | 169° |
| 2026-05-04 20:42 | 21.84898 | 142.79262 | 37071 ft | 474 kts | 169° |
| 2026-05-04 20:42 | 21.78440 | 142.80772 | 37072 ft | 474 kts | 169° |
| 2026-05-04 20:43 | 21.71990 | 142.82279 | 37068 ft | 474 kts | 169° |
| 2026-05-04 20:43 | 21.65527 | 142.83786 | 37070 ft | 475 kts | 169° |
| 2026-05-04 20:44 | 21.59104 | 142.85284 | 37069 ft | 474 kts | 169° |
| 2026-05-04 20:44 | 21.52647 | 142.86788 | 37069 ft | 475 kts | 169° |
| 2026-05-04 20:45 | 21.46191 | 142.88291 | 37060 ft | 475 kts | 169° |
| 2026-05-04 20:45 | 21.39715 | 142.89796 | 37068 ft | 475 kts | 169° |
| 2026-05-04 20:46 | 21.33287 | 142.91289 | 37065 ft | 475 kts | 169° |
| 2026-05-04 20:46 | 21.26822 | 142.92790 | 37065 ft | 476 kts | 169° |
| 2026-05-04 20:47 | 21.20349 | 142.94291 | 37058 ft | 476 kts | 169° |
| 2026-05-04 20:47 | 21.14960 | 142.95540 | 37062 ft | 476 kts | 169° |
| 2026-05-04 20:48 | 21.07424 | 142.97285 | 37063 ft | 477 kts | 169° |
| 2026-05-04 20:48 | 21.01997 | 142.98540 | 37058 ft | 476 kts | 169° |
| 2026-05-04 20:49 | 20.95562 | 143.00147 | 37057 ft | 477 kts | 168° |
| 2026-05-04 20:49 | 20.89089 | 143.01772 | 37067 ft | 477 kts | 168° |
| 2026-05-04 20:50 | 20.82651 | 143.03385 | 37059 ft | 478 kts | 168° |
| 2026-05-04 20:50 | 20.76175 | 143.05006 | 37054 ft | 479 kts | 168° |
| 2026-05-04 20:51 | 20.69683 | 143.06630 | 37058 ft | 478 kts | 168° |
| 2026-05-04 20:51 | 20.63244 | 143.08239 | 37055 ft | 478 kts | 168° |
| 2026-05-04 20:52 | 20.56761 | 143.09856 | 37052 ft | 478 kts | 168° |
| 2026-05-04 20:52 | 20.50284 | 143.11473 | 37052 ft | 478 kts | 168° |
| 2026-05-04 20:53 | 20.43789 | 143.13092 | 37057 ft | 479 kts | 168° |
| 2026-05-04 20:53 | 20.37343 | 143.14697 | 37057 ft | 478 kts | 168° |
| 2026-05-04 20:54 | 20.30857 | 143.16311 | 37053 ft | 477 kts | 168° |
| 2026-05-04 20:54 | 20.24378 | 143.17921 | 37049 ft | 478 kts | 168° |
| 2026-05-04 20:55 | 20.17927 | 143.19524 | 37047 ft | 479 kts | 168° |
| 2026-05-04 20:55 | 20.11431 | 143.21135 | 37043 ft | 478 kts | 168° |
| 2026-05-04 20:56 | 20.04961 | 143.22740 | 37044 ft | 476 kts | 168° |
| 2026-05-04 20:56 | 19.98532 | 143.24332 | 37053 ft | 478 kts | 168° |
| 2026-05-04 20:57 | 19.92042 | 143.25939 | 37049 ft | 478 kts | 168° |
| 2026-05-04 20:57 | 19.85601 | 143.27532 | 37044 ft | 476 kts | 168° |
| 2026-05-04 20:58 | 19.79154 | 143.29125 | 37049 ft | 477 kts | 168° |
| 2026-05-04 20:58 | 19.72695 | 143.30719 | 37035 ft | 476 kts | 168° |
| 2026-05-04 20:59 | 19.66217 | 143.32318 | 37038 ft | 476 kts | 169° |
| 2026-05-04 20:59 | 19.59807 | 143.33898 | 37049 ft | 475 kts | 169° |
| 2026-05-04 21:00 | 19.53373 | 143.35483 | 37044 ft | 475 kts | 169° |
| 2026-05-04 21:00 | 19.46947 | 143.37064 | 37036 ft | 475 kts | 169° |
| 2026-05-04 21:01 | 19.40500 | 143.38649 | 37035 ft | 475 kts | 169° |
| 2026-05-04 21:01 | 19.34057 | 143.40233 | 37032 ft | 474 kts | 169° |
| 2026-05-04 21:02 | 19.27629 | 143.41811 | 37035 ft | 474 kts | 169° |
| 2026-05-04 21:02 | 19.21192 | 143.43390 | 37029 ft | 474 kts | 169° |
| 2026-05-04 21:03 | 19.14802 | 143.44956 | 37034 ft | 474 kts | 170° |
| 2026-05-04 21:03 | 19.08398 | 143.46524 | 37028 ft | 473 kts | 170° |
| 2026-05-04 21:04 | 19.01968 | 143.48098 | 37027 ft | 473 kts | 170° |
| 2026-05-04 21:04 | 18.95587 | 143.49658 | 37024 ft | 473 kts | 170° |
| 2026-05-04 21:05 | 18.89154 | 143.51230 | 37021 ft | 473 kts | 171° |
| 2026-05-04 21:05 | 18.82741 | 143.52796 | 37025 ft | 473 kts | 171° |
| 2026-05-04 21:06 | 18.76316 | 143.54363 | 37019 ft | 473 kts | 171° |
| 2026-05-04 21:06 | 18.69933 | 143.55919 | 37019 ft | 473 kts | 171° |
| 2026-05-04 21:07 | 18.63517 | 143.57482 | 37016 ft | 472 kts | 171° |
| 2026-05-04 21:07 | 18.57111 | 143.59041 | 37019 ft | 472 kts | 171° |
| 2026-05-04 21:08 | 18.50740 | 143.60590 | 37021 ft | 472 kts | 171° |
| 2026-05-04 21:08 | 18.44337 | 143.62146 | 37020 ft | 472 kts | 171° |
| 2026-05-04 21:09 | 18.37927 | 143.63703 | 37012 ft | 472 kts | 171° |
| 2026-05-04 21:09 | 18.31539 | 143.65253 | 37020 ft | 471 kts | 171° |
| 2026-05-04 21:10 | 18.25177 | 143.66795 | 37018 ft | 471 kts | 171° |
| 2026-05-04 21:10 | 18.18777 | 143.68346 | 37015 ft | 471 kts | 171° |
| 2026-05-04 21:11 | 18.12378 | 143.69895 | 37016 ft | 471 kts | 171° |
| 2026-05-04 21:11 | 18.06029 | 143.71431 | 37012 ft | 471 kts | 171° |
| 2026-05-04 21:12 | 17.99630 | 143.72978 | 37012 ft | 471 kts | 171° |
| 2026-05-04 21:12 | 17.93223 | 143.74525 | 37012 ft | 471 kts | 171° |
| 2026-05-04 21:13 | 17.86874 | 143.76057 | 37003 ft | 471 kts | 171° |
| 2026-05-04 21:13 | 17.80487 | 143.77598 | 37011 ft | 470 kts | 171° |
| 2026-05-04 21:14 | 17.74097 | 143.79139 | 37010 ft | 470 kts | 171° |
| 2026-05-04 21:14 | 17.67716 | 143.80676 | 37010 ft | 470 kts | 171° |
| 2026-05-04 21:15 | 17.61385 | 143.82199 | 37003 ft | 470 kts | 171° |
| 2026-05-04 21:15 | 17.54998 | 143.83687 | 37006 ft | 469 kts | 172° |
| 2026-05-04 21:16 | 17.48611 | 143.85110 | 37007 ft | 469 kts | 172° |
| 2026-05-04 21:16 | 17.42224 | 143.86539 | 37001 ft | 469 kts | 172° |
| 2026-05-04 21:17 | 17.35893 | 143.87955 | 37001 ft | 469 kts | 172° |
| 2026-05-04 21:17 | 17.29501 | 143.89383 | 36998 ft | 468 kts | 172° |
| 2026-05-04 21:18 | 17.23123 | 143.90808 | 36996 ft | 468 kts | 172° |
| 2026-05-04 21:18 | 17.16787 | 143.92222 | 36996 ft | 468 kts | 172° |
| 2026-05-04 21:19 | 17.10415 | 143.93643 | 36996 ft | 468 kts | 172° |
| 2026-05-04 21:19 | 17.04059 | 143.95060 | 36993 ft | 468 kts | 172° |
| 2026-05-04 21:20 | 16.97684 | 143.96479 | 36995 ft | 468 kts | 172° |
| 2026-05-04 21:20 | 16.91308 | 143.97898 | 36996 ft | 468 kts | 172° |
| 2026-05-04 21:21 | 16.84983 | 143.99305 | 36993 ft | 468 kts | 172° |
| 2026-05-04 21:21 | 16.78604 | 144.00723 | 36988 ft | 468 kts | 172° |
| 2026-05-04 21:22 | 16.72240 | 144.02136 | 36993 ft | 467 kts | 172° |
| 2026-05-04 21:22 | 16.65911 | 144.03541 | 36993 ft | 467 kts | 172° |
| 2026-05-04 21:23 | 16.59555 | 144.04950 | 36993 ft | 467 kts | 172° |
| 2026-05-04 21:23 | 16.53186 | 144.06362 | 36979 ft | 467 kts | 172° |
| 2026-05-04 21:24 | 16.46861 | 144.07763 | 36987 ft | 466 kts | 172° |
| 2026-05-04 21:24 | 16.40501 | 144.09171 | 36988 ft | 466 kts | 172° |
| 2026-05-04 21:25 | 16.34161 | 144.10573 | 36985 ft | 466 kts | 172° |
| 2026-05-04 21:25 | 16.27837 | 144.11971 | 36985 ft | 466 kts | 172° |
| 2026-05-04 21:26 | 16.21482 | 144.13375 | 36983 ft | 465 kts | 172° |
| 2026-05-04 21:26 | 16.15182 | 144.14766 | 36982 ft | 465 kts | 172° |
| 2026-05-04 21:27 | 16.08842 | 144.16164 | 36983 ft | 465 kts | 172° |
| 2026-05-04 21:27 | 16.02488 | 144.17565 | 36982 ft | 465 kts | 172° |
| 2026-05-04 21:28 | 15.96191 | 144.18953 | 36977 ft | 465 kts | 171° |
| 2026-05-04 21:28 | 15.89882 | 144.20341 | 36978 ft | 464 kts | 171° |
| 2026-05-04 21:29 | 15.83560 | 144.21733 | 36980 ft | 464 kts | 171° |
| 2026-05-04 21:29 | 15.77238 | 144.23123 | 36975 ft | 464 kts | 171° |
| 2026-05-04 21:30 | 15.70964 | 144.24502 | 36974 ft | 463 kts | 171° |
| 2026-05-04 21:30 | 15.64650 | 144.25888 | 36976 ft | 463 kts | 171° |
| 2026-05-04 21:31 | 15.55218 | 144.27958 | 36971 ft | 463 kts | 171° |
| 2026-05-04 21:32 | 15.48901 | 144.29343 | 36972 ft | 463 kts | 171° |
| 2026-05-04 21:32 | 15.42587 | 144.30727 | 36975 ft | 463 kts | 171° |
| 2026-05-04 21:33 | 15.36280 | 144.32108 | 36971 ft | 463 kts | 171° |
| 2026-05-04 21:33 | 15.30003 | 144.33482 | 36971 ft | 463 kts | 171° |
| 2026-05-04 21:33 | 15.26860 | 144.34170 | 36844 ft | 459 kts | 171° |
| 2026-05-04 21:34 | 15.23741 | 144.34851 | 36132 ft | 459 kts | 171° |
| 2026-05-04 21:34 | 15.20588 | 144.35541 | 35170 ft | 467 kts | 171° |
| 2026-05-04 21:34 | 15.17396 | 144.36238 | 34352 ft | 471 kts | 172° |
| 2026-05-04 21:34 | 15.14170 | 144.36944 | 33578 ft | 473 kts | 171° |
| 2026-05-04 21:35 | 15.10948 | 144.37649 | 32759 ft | 475 kts | 171° |
| 2026-05-04 21:35 | 15.07674 | 144.38142 | 31804 ft | 477 kts | 177° |
| 2026-05-04 21:35 | 15.04351 | 144.38512 | 30895 ft | 481 kts | 176° |
| 2026-05-04 21:35 | 15.01019 | 144.38915 | 30182 ft | 481 kts | 175° |
| 2026-05-04 21:36 | 14.97739 | 144.39326 | 29537 ft | 477 kts | 175° |
| 2026-05-04 21:36 | 14.94455 | 144.39744 | 28892 ft | 473 kts | 175° |
| 2026-05-04 21:36 | 14.91206 | 144.40156 | 28246 ft | 470 kts | 175° |
| 2026-05-04 21:36 | 14.87968 | 144.40566 | 27616 ft | 467 kts | 175° |
| 2026-05-04 21:37 | 14.84742 | 144.40977 | 26977 ft | 464 kts | 175° |
| 2026-05-04 21:37 | 14.82622 | 144.41229 | 26539 ft | 462 kts | 175° |
| 2026-05-04 21:37 | 14.78406 | 144.41772 | 25741 ft | 459 kts | 174° |
| 2026-05-04 21:37 | 14.75240 | 144.42182 | 25116 ft | 458 kts | 174° |
| 2026-05-04 21:38 | 14.72079 | 144.42585 | 24502 ft | 456 kts | 173° |
| 2026-05-04 21:38 | 14.69990 | 144.42850 | 24094 ft | 456 kts | 173° |
| 2026-05-04 21:38 | 14.66849 | 144.43249 | 23477 ft | 454 kts | 173° |
| 2026-05-04 21:38 | 14.63707 | 144.43645 | 22748 ft | 454 kts | 173° |
| 2026-05-04 21:39 | 14.60582 | 144.44043 | 22142 ft | 449 kts | 172° |
| 2026-05-04 21:39 | 14.57490 | 144.44434 | 21526 ft | 445 kts | 172° |
| 2026-05-04 21:39 | 14.54458 | 144.44818 | 20950 ft | 442 kts | 172° |
| 2026-05-04 21:39 | 14.51411 | 144.45204 | 20370 ft | 438 kts | 172° |
| 2026-05-04 21:40 | 14.48391 | 144.45582 | 19796 ft | 435 kts | 172° |
| 2026-05-04 21:40 | 14.45394 | 144.45964 | 19225 ft | 432 kts | 172° |
| 2026-05-04 21:40 | 14.42432 | 144.46340 | 18670 ft | 429 kts | 172° |
| 2026-05-04 21:40 | 14.39475 | 144.46715 | 18100 ft | 426 kts | 172° |
| 2026-05-04 21:41 | 14.36543 | 144.47084 | 17495 ft | 422 kts | 172° |
| 2026-05-04 21:41 | 14.33676 | 144.47452 | 16963 ft | 418 kts | 172° |
| 2026-05-04 21:41 | 14.30807 | 144.47810 | 16465 ft | 413 kts | 172° |
| 2026-05-04 21:41 | 14.27978 | 144.48168 | 15971 ft | 404 kts | 172° |
| 2026-05-04 21:42 | 14.25206 | 144.48519 | 15482 ft | 396 kts | 172° |
| 2026-05-04 21:42 | 14.22494 | 144.48862 | 15006 ft | 389 kts | 172° |
| 2026-05-04 21:42 | 14.19821 | 144.49195 | 14535 ft | 385 kts | 171° |
| 2026-05-04 21:42 | 14.17168 | 144.49532 | 14039 ft | 385 kts | 171° |
| 2026-05-04 21:43 | 14.14518 | 144.49868 | 13560 ft | 383 kts | 171° |
| 2026-05-04 21:43 | 14.11881 | 144.50201 | 13052 ft | 381 kts | 171° |
| 2026-05-04 21:43 | 14.09290 | 144.50529 | 12593 ft | 378 kts | 170° |
| 2026-05-04 21:43 | 14.06685 | 144.50857 | 12132 ft | 375 kts | 170° |
| 2026-05-04 21:44 | 14.04095 | 144.51183 | 11681 ft | 372 kts | 169° |
| 2026-05-04 21:44 | 14.01538 | 144.51508 | 11279 ft | 368 kts | 171° |
| 2026-05-04 21:44 | 13.99035 | 144.51822 | 11109 ft | 355 kts | 170° |
| 2026-05-04 21:44 | 13.96605 | 144.51859 | 10917 ft | 345 kts | 186° |
| 2026-05-04 21:45 | 13.94282 | 144.51386 | 10769 ft | 334 kts | 189° |
| 2026-05-04 21:45 | 13.92065 | 144.50837 | 10618 ft | 323 kts | 190° |
| 2026-05-04 21:45 | 13.89936 | 144.50336 | 10477 ft | 312 kts | 190° |
| 2026-05-04 21:45 | 13.87854 | 144.49854 | 10336 ft | 301 kts | 190° |
| 2026-05-04 21:46 | 13.85848 | 144.49366 | 10192 ft | 291 kts | 193° |
| 2026-05-04 21:46 | 13.83917 | 144.48874 | 10059 ft | 281 kts | 190° |
| 2026-05-04 21:46 | 13.82015 | 144.48394 | 9935 ft | 283 kts | 190° |
| 2026-05-04 21:46 | 13.80068 | 144.47920 | 9656 ft | 291 kts | 189° |
| 2026-05-04 21:47 | 13.78094 | 144.47433 | 9355 ft | 292 kts | 190° |
| 2026-05-04 21:47 | 13.76140 | 144.46970 | 9055 ft | 292 kts | 190° |
| 2026-05-04 21:47 | 13.74160 | 144.46499 | 8764 ft | 290 kts | 190° |
| 2026-05-04 21:47 | 13.72203 | 144.46033 | 8495 ft | 286 kts | 190° |
| 2026-05-04 21:48 | 13.70275 | 144.45564 | 8248 ft | 283 kts | 190° |
| 2026-05-04 21:48 | 13.68380 | 144.45070 | 8022 ft | 279 kts | 190° |
| 2026-05-04 21:48 | 13.66500 | 144.44665 | 7777 ft | 273 kts | 182° |
| 2026-05-04 21:48 | 13.64652 | 144.44463 | 7561 ft | 267 kts | 180° |
| 2026-05-04 21:49 | 13.62810 | 144.44289 | 7340 ft | 267 kts | 180° |
| 2026-05-04 21:49 | 13.60935 | 144.44115 | 7125 ft | 273 kts | 180° |
| 2026-05-04 21:49 | 13.59028 | 144.43953 | 6890 ft | 275 kts | 180° |
| 2026-05-04 21:49 | 13.57122 | 144.43808 | 6686 ft | 274 kts | 180° |
| 2026-05-04 21:50 | 13.55228 | 144.43669 | 6462 ft | 271 kts | 179° |
| 2026-05-04 21:50 | 13.53378 | 144.43502 | 6213 ft | 269 kts | 180° |
| 2026-05-04 21:50 | 13.51524 | 144.43346 | 5964 ft | 265 kts | 180° |
| 2026-05-04 21:50 | 13.49694 | 144.43211 | 5699 ft | 261 kts | 177° |
| 2026-05-04 21:51 | 13.47894 | 144.43302 | 5454 ft | 256 kts | 170° |
| 2026-05-04 21:51 | 13.46159 | 144.43626 | 5208 ft | 250 kts | 161° |
| 2026-05-04 21:51 | 13.44510 | 144.44059 | 4975 ft | 246 kts | 160° |
| 2026-05-04 21:51 | 13.42871 | 144.44516 | 4743 ft | 242 kts | 157° |
| 2026-05-04 21:52 | 13.41332 | 144.45164 | 4523 ft | 236 kts | 150° |
| 2026-05-04 21:52 | 13.39861 | 144.45875 | 4350 ft | 230 kts | 150° |
| 2026-05-04 21:52 | 13.38438 | 144.46587 | 4174 ft | 223 kts | 143° |
| 2026-05-04 21:52 | 13.37438 | 144.47713 | 3974 ft | 209 kts | 111° |
| 2026-05-04 21:53 | 13.37171 | 144.49120 | 3813 ft | 201 kts | 91° |
| 2026-05-04 21:53 | 13.37134 | 144.50555 | 3715 ft | 201 kts | 90° |
| 2026-05-04 21:53 | 13.37106 | 144.51998 | 3587 ft | 202 kts | 90° |
| 2026-05-04 21:53 | 13.37088 | 144.53441 | 3435 ft | 200 kts | 89° |
| 2026-05-04 21:54 | 13.37295 | 144.54831 | 3265 ft | 194 kts | 75° |
| 2026-05-04 21:54 | 13.37761 | 144.56108 | 3094 ft | 187 kts | 69° |
| 2026-05-04 21:54 | 13.38288 | 144.57300 | 2996 ft | 179 kts | 67° |
| 2026-05-04 21:54 | 13.38807 | 144.58447 | 2982 ft | 180 kts | 66° |
| 2026-05-04 21:55 | 13.39338 | 144.59616 | 3063 ft | 181 kts | 66° |
| 2026-05-04 21:55 | 13.39864 | 144.60773 | 3035 ft | 172 kts | 67° |
| 2026-05-04 21:55 | 13.40351 | 144.61844 | 2979 ft | 160 kts | 66° |
| 2026-05-04 21:55 | 13.40817 | 144.62869 | 2950 ft | 157 kts | 66° |
| 2026-05-04 21:56 | 13.41281 | 144.63888 | 2956 ft | 158 kts | 66° |
| 2026-05-04 21:56 | 13.41750 | 144.64916 | 2911 ft | 159 kts | 67° |
| 2026-05-04 21:56 | 13.42198 | 144.65899 | 2757 ft | 141 kts | 67° |
| 2026-05-04 21:56 | 13.42603 | 144.66790 | 2626 ft | 136 kts | 66° |
| 2026-05-04 21:57 | 13.42997 | 144.67655 | 2449 ft | 132 kts | 66° |
| 2026-05-04 21:57 | 13.43381 | 144.68498 | 2286 ft | 131 kts | 65° |
| 2026-05-04 21:57 | 13.43767 | 144.69347 | 2101 ft | 130 kts | 66° |
| 2026-05-04 21:57 | 13.44151 | 144.70196 | 1938 ft | 131 kts | 64° |
| 2026-05-04 21:58 | 13.44526 | 144.71043 | 1828 ft | 130 kts | 66° |
| 2026-05-04 21:58 | 13.44912 | 144.71925 | 1674 ft | 140 kts | 65° |
| 2026-05-04 21:58 | 13.45339 | 144.72835 | 1562 ft | 143 kts | 65° |
| 2026-05-04 21:58 | 13.45776 | 144.73733 | 1411 ft | 140 kts | 65° |
| 2026-05-04 21:59 | 13.46172 | 144.74609 | 1124 ft | 132 kts | 68° |
| 2026-05-04 21:59 | 13.46570 | 144.75502 | 888 ft | 134 kts | 65° |
| 2026-05-04 21:59 | 13.46957 | 144.76383 | 675 ft | 139 kts | 65° |
| 2026-05-04 21:59 | 13.47374 | 144.77268 | 514 ft | 136 kts | 65° |
| 2026-05-04 22:00 | 13.47779 | 144.78142 | 369 ft | 133 kts | 67° |
| 2026-05-04 22:00 | 13.48150 | 144.78962 | 278 ft | 112 kts | 65° |
| 2026-05-04 22:00 | 13.48409 | 144.79519 | 281 ft | 55 kts | 64° |
| 2026-05-04 22:00 | 13.48518 | 144.79773 | 284 ft | 37 kts | 65° |
| 2026-05-04 22:01 | 13.48629 | 144.80010 | 291 ft | 36 kts | 65° |
| 2026-05-04 22:01 | 13.48741 | 144.80213 | 298 ft | 28 kts | 47° |
| 2026-05-04 22:01 | 13.48885 | 144.80337 | 296 ft | 26 kts | 35° |
| 2026-05-04 22:01 | 13.49001 | 144.80431 | 297 ft | 17 kts | 50° |
| 2026-05-04 22:02 | 13.49059 | 144.80528 | 301 ft | 15 kts | 63° |
| 2026-05-04 22:02 | 13.49107 | 144.80615 | 302 ft | 4 kts | 55° |
| 2026-05-04 22:02 | 13.49119 | 144.80618 | 302 ft | 2 kts | 0° |
| 2026-05-04 22:02 | 13.49139 | 144.80612 | 300 ft | 4 kts | 334° |
| 2026-05-04 22:03 | 13.49172 | 144.80593 | 300 ft | 6 kts | 330° |
| 2026-05-04 22:03 | 13.49195 | 144.80580 | 299 ft | 0 kts | 331° |